• Join FlightAware (Why Join?)
  • Login
  • US Flag 
04:07PM EDT


 

Airport Tracker/Info


-or-


 

Live Flight TrackerFlight Track Log ✈ AWE3286 ✈ 30-Jul-2013 ✈ KCLT - KBDL

Flight Track Log - Related Links

Times and Time Zones

All times are in EDT time to prevent confusion due to time zone crossing. See the AWE3286 flight status page for this flight to view local times or setup timezone preferences in your user account.

Time Position Orientation Groundspeed Altitude Reporting Facility
EDT Latitude Longitude Course Direction KTS MPH feet Rate Location/Type
10:23AM 35.2328 -80.9392 72° East 142 163 1,700  Level Atlanta Center
10:24AM 35.2739 -80.9250 16° North 199 229 2,600 1,560 Climbing Atlanta Center
10:25AM 35.3078 -80.8600 57° Northeast 283 326 4,600 2,100 Climbing Atlanta Center
10:26AM 35.1876 -80.5749 29° Northeast  Level FlightAware Approximate
10:26AM 35.3167 -80.8011 80° East 273 314 6,300  Level Atlanta Center
10:27AM 35.2778 -80.5111 30° Northeast  Level FlightAware Approximate
10:27AM 35.3328 -80.7039 78° East 293 337 8,200  Level Atlanta Center
10:28AM 35.3422 -80.4330 72° East  Level FlightAware Approximate
10:28AM 35.3508 -80.6011 78° East 328 377 10,800  Level Atlanta Center
10:29AM 35.3743 -80.3115 72° East  Level FlightAware Approximate
10:29AM 35.3689 -80.4986 78° East 317 365 13,100  Level Atlanta Center
10:31AM 35.4175 -80.2256 78° East 338 389 17,500 1,620 Climbing Washington Center
10:32AM 35.4383 -80.1119 77° East 338 389 18,700 1,380 Climbing Washington Center
10:33AM 35.4672 -80.0092 71° East 344 396 20,300 1,560 Climbing Washington Center
10:34AM 35.4967 -79.8883 73° East 358 412 21,800 1,260 Climbing Washington Center
10:35AM 35.5303 -79.7675 71° East 358 412 22,900 1,080 Climbing Washington Center
10:36AM 35.5617 -79.6417 73° East 365 420 24,000 1,260 Climbing Washington Center
10:37AM 35.5978 -79.5003 73° East 388 447 25,400 1,260 Climbing Washington Center
10:38AM 35.6328 -79.3869 69° East 394 453 26,500 1,020 Climbing Washington Center
10:39AM 35.6786 -79.2511 67° East 394 453 27,500 1,200 Climbing Washington Center
10:40AM 35.7319 -79.1411 59° Northeast 394 453 28,900 1,320 Climbing Washington Center
10:41AM 35.7836 -79.0153 63° Northeast 399 459 30,100 1,020 Climbing Washington Center
10:42AM 35.8375 -78.8844 63° Northeast 404 465 31,000 420 Climbing Washington Center
10:43AM 35.8975 -78.7433 62° Northeast 409 471 31,000  Level Washington Center
10:44AM 35.9594 -78.6150 59° Northeast 419 482 31,000  Level Washington Center
10:45AM 36.0167 -78.4939 60° Northeast 425 489 31,000  Level Washington Center
10:46AM 36.0758 -78.3675 60° Northeast 420 483 31,000  Level Washington Center
10:47AM 36.1392 -78.2411 58° Northeast 415 478 31,000  Level Washington Center
10:48AM 36.1983 -78.1169 59° Northeast 415 478 31,000  Level Washington Center
10:49AM 36.2572 -77.9900 60° Northeast 415 478 31,000  Level Washington Center
10:50AM 36.3158 -77.8681 59° Northeast 415 478 31,000  Level Washington Center
10:51AM 36.3767 -77.7383 60° Northeast 415 478 31,000  Level Washington Center
10:52AM 36.4244 -77.6417 58° Northeast 415 478 31,000  Level Washington Center
10:53AM 36.4850 -77.5036 61° Northeast 410 472 31,000  Level Washington Center
10:54AM 36.5497 -77.3631 60° Northeast 418 481 31,000  Level Washington Center
10:55AM 36.6100 -77.2375 59° Northeast 412 474 31,000  Level Washington Center
10:56AM 36.6681 -77.1094 60° Northeast 412 474 31,000  Level Washington Center
10:57AM 36.7361 -76.9914 54° Northeast 412 474 31,000  Level Washington Center
10:58AM 36.8247 -76.9100 36° Northeast 402 463 31,000  Level Washington Center
10:59AM 36.9175 -76.8258 36° Northeast 397 457 31,000  Level Washington Center
11:00AM 37.0100 -76.7442 35° Northeast 402 463 31,000  Level Washington Center
11:01AM 37.1025 -76.6622 35° Northeast 402 463 31,000  Level Washington Center
11:02AM 37.1950 -76.5775 36° Northeast 407 468 31,000  Level Washington Center
11:03AM 37.2772 -76.5003 37° Northeast 407 468 31,000  Level Washington Center
11:04AM 37.3717 -76.4150 36° Northeast 407 468 31,000  Level Washington Center
11:05AM 37.4639 -76.3322 35° Northeast 407 468 31,000  Level Washington Center
11:06AM 37.5561 -76.2442 37° Northeast 407 468 31,000  Level Washington Center
11:07AM 37.6483 -76.1611 35° Northeast 407 468 31,000  Level Washington Center
11:08AM 37.7531 -76.0725 34° Northeast 407 468 31,000  Level Washington Center
11:09AM 37.8306 -75.9914 40° Northeast 407 468 31,000  Level Washington Center
11:10AM 37.9244 -75.9050 36° Northeast 407 468 31,000  Level Washington Center
11:11AM 38.0311 -75.8131 34° Northeast 413 475 31,000  Level Washington Center
11:12AM 38.1106 -75.7317 39° Northeast 413 475 31,000  Level Washington Center
11:13AM 38.2022 -75.6444 37° Northeast 413 475 31,000  Level Washington Center
11:14AM 38.2942 -75.5547 37° Northeast 413 475 31,000  Level Washington Center
11:15AM 38.3942 -75.4883 27° Northeast 413 475 31,000  Level Washington Center
11:16AM 38.5025 -75.4431 18° North 396 456 31,000  Level Washington Center
11:17AM 38.6108 -75.4003 17° North 396 456 31,000  Level Washington Center
11:18AM 38.7192 -75.3575 17° North 396 456 31,000  Level Washington Center
11:19AM 38.8233 -75.3119 19° North 401 461 31,000  Level Washington Center
11:20AM 38.9189 -75.2289 34° Northeast 401 461 31,000  Level Washington Center
11:21AM 39.0103 -75.1428 36° Northeast 406 467 31,000  Level Washington Center
11:22AM 39.1017 -75.0486 39° Northeast 406 467 31,000  Level Washington Center
11:23AM 39.1931 -74.9542 39° Northeast 416 479 31,000  Level Washington Center
11:24AM 39.2842 -74.8650 37° Northeast 416 479 31,000  Level Washington Center
11:25AM 39.3711 -74.7756 38° Northeast 416 479 31,000  Level Washington Center
11:26AM 39.4622 -74.6831 38° Northeast 416 479 31,000  Level Washington Center
11:27AM 39.5531 -74.5903 38° Northeast 416 479 31,000  Level Washington Center
11:28AM 39.6439 -74.4975 38° Northeast 416 479 31,000  Level Washington Center
11:30AM 39.7861 -74.3531 38° Northeast 407 468 31,000 -60 Level New York Center
11:31AM 39.8808 -74.2550 38° Northeast 418 481 30,900 -1,200 Descending New York Center
11:32AM 39.9753 -74.1567 39° Northeast 423 487 28,600 -2,340 Descending New York Center
11:33AM 40.0719 -74.0583 38° Northeast 431 496 26,300 -1,800 Descending New York Center
11:34AM 40.1619 -73.9678 38° Northeast 426 490 25,000 -660 Descending New York Center
11:35AM 40.2542 -73.8714 39° Northeast 421 484 25,000 -420 Level New York Center
11:36AM 40.3356 -73.7933 36° Northeast 421 484 24,200 -960 Descending New York Center
11:38AM 40.5106 -73.5975 40° Northeast 429 494 22,200 -1,020 Descending Boston Center
11:39AM 40.5947 -73.5086 39° Northeast 403 464 21,200 -900 Descending Boston Center
11:40AM 40.6789 -73.4197 39° Northeast 391 450 20,300 -1,020 Descending Boston Center
11:41AM 40.7839 -73.3144 37° Northeast 379 436 19,100 -600 Descending Boston Center
11:42AM 40.8786 -73.2058 41° Northeast 369 425 19,000 -600 Descending Boston Center
11:43AM 40.9542 -73.1161 42° Northeast 364 419 17,900 -1,260 Descending Boston Center
11:44AM 41.0317 -73.0289 40° Northeast 364 419 16,500 -1,080 Descending Boston Center
11:45AM 41.1050 -72.9414 42° Northeast 359 413 15,800 -1,200 Descending Boston Center
11:46AM 41.1806 -72.8539 41° Northeast 354 407 14,100 -1,740 Descending Boston Center
11:47AM 41.2286 -72.7961 42° Northeast 347 399 12,900 -1,740 Descending Boston Center
11:48AM 41.2767 -72.7411 41° Northeast 338 389 11,700 -1,500 Descending Boston Center
11:48AM 41.3331 -72.7358 North 304 350 11,000 -1,140 Descending Boston Center
11:49AM 41.4058 -72.7722 339° North 274 315 10,000 -660 Descending Boston Center
11:50AM 41.4703 -72.8225 330° Northwest 274 315 9,700 -1,020 Descending Boston Center
11:51AM 41.5411 -72.7894 19° North 239 275 8,000 -1,800 Descending Boston Center
11:52AM 41.6100 -72.7400 28° Northeast 262 302 6,100 -1,800 Descending Boston Center
11:53AM 41.6769 -72.6931 28° Northeast 267 307 4,500 -1,500 Descending Boston Center
11:54AM 41.7061 -72.6708 30° Northeast 260 299 3,900 -900 Descending Boston Center
11:54AM 41.7375 -72.6486 28° Northeast 252 290 3,600 -840 Descending Boston Center
11:55AM 41.7603 -72.6322 28° Northeast 209 241 3,100 -1,020 Descending Boston Center
11:55AM 41.7875 -72.6128 28° Northeast 217 250 2,600 -840 Descending Boston Center
11:56AM 41.8106 -72.5989 24° Northeast 198 228 2,300 -600 Descending Boston Center
11:56AM 41.8356 -72.5850 22° Northeast 194 223 2,000 -300 Descending Boston Center
11:57AM 41.8564 -72.5906 349° North 172 198 2,000 -300 Level Boston Center
11:57AM 41.8772 -72.6075 329° Northwest 166 191 1,700 -480 Descending Boston Center
11:58AM 41.9167 -72.6411 328° Northwest 156 180 1,200 -540 Descending Boston Center